Portada
Imágenes satélite Pronóstico 10 díasClimaPredicción Marítima Ciclones Rayo AeropuertosFAQ Noticias Acerca
El tiempo : Europa África América del Norte América del Sur Asia Australia-Oceanía Otros
Idiomas Contacto

Junín, Argentina

Aeropuerto de Junín

latitud: 34-33S, longitud: 060-55W, altitud: 82 m


METAR: SAAJ 230625Z 230010KT 9999 BKN012 FEW035 FEW045 CB BKN050 20/20 Q1005 LGHT
TAF: falta

Hora: 04:13 (07:13 UTC)

Observación

El informe se hizo hace 48 minutos, a las 06:25 UTC
Viento 10 kt del suroeste
Temperatura 20°C
Humedad 100%
Presión 1005 hPa
Visibilidad 10 km o más
Cielo nuboso a una altura de 1200 ft
Escasas nubes a una altura de 3500 ft
Escasas nubes a una altura de 4500 ft
Cielo nuboso a una altura de 5000 ft

Cambiar las unidades
La información que se ofrece en estas páginas está sujeta a una cláusula de exención de responsabilidad
El tiempo : Europa África América del Norte América del Sur Asia Australia-Oceanía Otros
Imágenes satélite Pronóstico 10 díasClimaPredicción Marítima Ciclones Rayo AeropuertosFAQ Idiomas Contacto Noticias Acerca